Randolph Air Force Base
KRND : rendu visible

Aérodrome :











RETROUVEZ-NOUS SUR...

 
LOGIN :

S'inscrire | Disclaimer

   EN    FR    IT 

 









Légende :    VFR   VFR Marginal   IFR   IFR Intensif   IFR Très Intensif
Visi : 
Plafond : 
>= 8 km
>= 3000ft
5 à 8 km
1000 à 3000 ft
1500m à 5 km
500 à 1000 ft
800 à 1500m
200 à 500 ft
< 800m
< 200 ft
Symboles :   Orages  Brouillard  Fortes neiges  Fortes précipitations  Vent > 20 kt






- Altitude de l'aérodrome : 761 ft


KRND - Randolph Air Force Base

DERNIER METAR :
  • 310856Z AUTO 34005KT 10SM CLR 06/02 A3020 RMK AO2 SLP225 T00560015 56004 $

METARs EXPIRÉS :
  • 310756Z AUTO 34005KT 10SM CLR 05/01 A3020 RMK AO2 SLP226 T00530014 $
  • 310656Z AUTO 33004KT 10SM CLR 06/02 A3020 RMK AO2 SLP226 T00640015 $

TAF AMD TAF KRND
Valide du 30 à 23h jusqu'au 31 à 22h UTC


302345Z 3023/3122 VRB06KT 9999 SKC QNH3009INS TX21/3023Z TN06/3113Z LAST NO AMDS AFT 3024 NEXT 0211
FIR KZHU / Amérique du Nord



MET'MAP, la Météo Aéronautique d'un coup d'oeil ! - Copyright ORBIFLY Décembre 2007 - Disclaimer

ORBIFLY MET'MAP TEAM :

Programmation & Développement : Alexandra Zaïnal
Sur une idée originale de : Baudouin d'Aumeries
Assistance à la programmation : Marc-Olivier Méhu
Soutien technique & logistique : Manuel Goepfert

Contact : metmap@orbifly.com




SOURCES & CREDITS :

   NOAA       Earth
Advisory